Time;durP1;ratioP1;P1;durP2;ratioP2;P2;SDS_P1;SDS_P2;PMS_P1;PMS_P2;Temp;Humidity;BMP_temperature;BMP_pressure;BME280_temperature;BME280_humidity;BME280_pressure;Samples;Min_cycle;Max_cycle;Signal;HPM_P1;HPM_P2
2022/06/30 00:01:35;;;;;;;;;;;19.40;99.90;;;;;;5050408;28;19925;-65
2022/06/30 00:04:02;;;;;;;;;;;19.40;99.90;;;;;;5050408;28;19928;-65
2022/06/30 00:06:29;;;;;;;;;;;19.30;99.90;;;;;;5050196;28;19928;-65
2022/06/30 00:08:56;;;;;;;;;;;19.20;99.90;;;;;;5050402;28;19924;-65
2022/06/30 00:11:24;;;;;;;;;;;19.10;99.90;;;;;;5050248;28;19975;-65
2022/06/30 00:13:51;;;;;;;;;;;19.20;99.90;;;;;;5049939;28;19932;-63
2022/06/30 00:16:18;;;;;;;;;;;19.20;99.90;;;;;;5050551;28;19928;-65
2022/06/30 00:18:45;;;;;;;;;;;19.10;99.90;;;;;;5050235;28;19932;-65
2022/06/30 00:21:12;;;;;;;;;;;18.90;99.90;;;;;;5052055;28;19925;-66
2022/06/30 00:23:39;;;;;;;;;;;18.90;99.90;;;;;;5053955;28;20024;-66
2022/06/30 00:26:06;;;;;;;;;;;18.80;99.90;;;;;;5053988;28;19925;-66
2022/06/30 00:28:34;;;;;;;;;;;18.80;99.90;;;;;;5053886;28;20031;-66
2022/06/30 00:31:01;;;;;;;;;;;18.80;99.90;;;;;;5053818;28;19970;-66
2022/06/30 00:33:28;;;;;;;;;;;18.80;99.90;;;;;;5053602;28;20355;-65
2022/06/30 00:35:54;;;;;;;;;;;18.80;99.90;;;;;;5053656;28;19925;-65
2022/06/30 00:38:21;;;;;;;;;;;18.80;99.90;;;;;;5053590;28;20384;-66
2022/06/30 00:40:48;;;;;;;;;;;18.80;99.90;;;;;;5053241;28;19928;-65
2022/06/30 00:43:15;;;;;;;;;;;18.80;99.90;;;;;;5053785;28;19925;-66
2022/06/30 00:45:44;;;;;;;;;;;18.50;99.90;;;;;;5053673;28;20027;-65
2022/06/30 00:48:11;;;;;;;;;;;18.30;99.90;;;;;;5053631;28;19928;-65
2022/06/30 00:50:38;;;;;;;;;;;18.20;99.90;;;;;;5053147;28;19928;-67
2022/06/30 00:53:05;;;;;;;;;;;18.30;99.90;;;;;;5053447;28;19925;-65
2022/06/30 00:55:32;;;;;;;;;;;18.40;99.90;;;;;;5053278;28;19925;-65
2022/06/30 00:58:00;;;;;;;;;;;18.40;99.90;;;;;;5053509;28;20032;-65
2022/06/30 01:00:27;;;;;;;;;;;18.50;99.90;;;;;;5052857;28;19936;-65
2022/06/30 01:02:56;;;;;;;;;;;18.50;99.90;;;;;;5052224;28;19924;-65
2022/06/30 01:05:25;;;;;;;;;;;18.40;99.90;;;;;;5053137;28;19925;-65
2022/06/30 01:07:51;;;;;;;;;;;18.40;99.90;;;;;;5052997;28;20308;-65
2022/06/30 01:13:03;;;;;;;;;;;18.20;99.90;;;;;;5053223;28;19921;-65
2022/06/30 01:15:30;;;;;;;;;;;18.00;99.90;;;;;;5052936;28;19974;-65
2022/06/30 01:17:58;;;;;;;;;;;17.90;99.90;;;;;;5053122;28;19924;-65
2022/06/30 01:20:27;;;;;;;;;;;18.00;99.90;;;;;;5052456;28;20355;-66
2022/06/30 01:22:55;;;;;;;;;;;18.00;99.90;;;;;;5052657;28;20015;-65
2022/06/30 01:25:21;;;;;;;;;;;18.10;99.90;;;;;;5052530;28;19925;-66
2022/06/30 01:27:48;;;;;;;;;;;18.00;99.90;;;;;;5052634;28;20462;-66
2022/06/30 01:30:15;;;;;;;;;;;18.00;99.90;;;;;;5052414;28;19932;-66
2022/06/30 01:32:42;;;;;;;;;;;17.90;99.90;;;;;;5051706;28;19960;-66
2022/06/30 01:35:09;;;;;;;;;;;17.90;99.90;;;;;;5052388;28;19928;-66
2022/06/30 01:37:46;;;;;;;;;;;17.90;99.90;;;;;;5052460;28;19925;-65
2022/06/30 01:40:14;;;;;;;;;;;17.90;99.90;;;;;;5052498;28;19925;-66
2022/06/30 01:42:41;;;;;;;;;;;17.90;99.90;;;;;;5052665;28;19932;-66
2022/06/30 01:45:08;;;;;;;;;;;17.90;99.90;;;;;;5052086;28;19925;-66
2022/06/30 01:47:35;;;;;;;;;;;18.00;99.90;;;;;;5052499;28;19968;-66
2022/06/30 01:50:06;;;;;;;;;;;18.10;99.90;;;;;;5051871;28;19924;-66
2022/06/30 01:52:33;;;;;;;;;;;18.30;99.90;;;;;;5052133;28;20350;-65
2022/06/30 01:54:59;;;;;;;;;;;18.30;99.90;;;;;;5051939;28;19925;-65
2022/06/30 01:57:29;;;;;;;;;;;18.40;99.90;;;;;;5051431;28;21319;-66
2022/06/30 01:59:56;;;;;;;;;;;18.40;99.90;;;;;;5052234;28;20404;-66
2022/06/30 02:02:23;;;;;;;;;;;18.30;99.90;;;;;;5052090;28;19925;-65
2022/06/30 02:04:51;;;;;;;;;;;18.30;99.90;;;;;;5052051;28;19925;-65
2022/06/30 02:07:18;;;;;;;;;;;18.20;99.90;;;;;;5052140;28;19928;-65
2022/06/30 02:09:45;;;;;;;;;;;18.10;99.90;;;;;;5051887;28;19940;-65
2022/06/30 02:14:58;;;;;;;;;;;18.20;99.90;;;;;;5051798;28;19920;-66
2022/06/30 02:17:25;;;;;;;;;;;18.10;99.90;;;;;;5051783;28;19960;-65
2022/06/30 02:19:52;;;;;;;;;;;18.20;99.90;;;;;;5051549;28;20338;-66
2022/06/30 02:22:18;;;;;;;;;;;18.10;99.90;;;;;;5051557;28;19932;-66
2022/06/30 02:24:45;;;;;;;;;;;17.80;99.90;;;;;;5050829;28;19975;-66
2022/06/30 02:27:12;;;;;;;;;;;17.60;99.90;;;;;;5051571;28;19951;-66
2022/06/30 02:29:39;;;;;;;;;;;17.60;99.90;;;;;;5051546;28;19929;-66
2022/06/30 02:32:08;;;;;;;;;;;17.60;99.90;;;;;;5051821;28;19986;-66
2022/06/30 02:34:35;;;;;;;;;;;17.60;99.90;;;;;;5050985;28;20383;-66
2022/06/30 02:37:01;;;;;;;;;;;17.60;99.90;;;;;;5051517;28;19925;-66
2022/06/30 02:39:28;;;;;;;;;;;17.50;99.90;;;;;;5051515;28;19971;-66
2022/06/30 02:41:55;;;;;;;;;;;17.50;99.90;;;;;;5050832;28;19967;-66
2022/06/30 02:44:22;;;;;;;;;;;17.60;99.90;;;;;;5049838;28;19978;-66
2022/06/30 02:46:50;;;;;;;;;;;17.60;99.90;;;;;;5050329;28;19937;-66
2022/06/30 02:49:18;;;;;;;;;;;17.60;99.90;;;;;;5049964;28;20407;-66
2022/06/30 02:51:45;;;;;;;;;;;17.50;99.90;;;;;;5050397;28;19925;-66
2022/06/30 02:54:12;;;;;;;;;;;17.50;99.90;;;;;;5050376;28;19925;-66
2022/06/30 02:56:39;;;;;;;;;;;17.60;99.90;;;;;;5050562;28;19932;-66
2022/06/30 02:59:06;;;;;;;;;;;17.60;99.90;;;;;;5050010;28;19929;-65
2022/06/30 03:01:32;;;;;;;;;;;17.70;99.90;;;;;;5050173;28;19932;-66
2022/06/30 03:04:00;;;;;;;;;;;17.60;99.90;;;;;;5049809;28;19929;-66
2022/06/30 03:06:28;;;;;;;;;;;17.60;99.90;;;;;;5050062;28;19925;-66
2022/06/30 03:08:55;;;;;;;;;;;17.60;99.90;;;;;;5049696;28;19928;-65
2022/06/30 03:11:22;;;;;;;;;;;17.60;99.90;;;;;;5050087;28;19940;-66
2022/06/30 03:13:49;;;;;;;;;;;17.50;99.90;;;;;;5049647;28;19932;-66
2022/06/30 03:16:17;;;;;;;;;;;17.50;99.90;;;;;;5050167;28;19931;-66
2022/06/30 03:18:44;;;;;;;;;;;17.50;99.90;;;;;;5049847;28;20359;-66
2022/06/30 03:21:11;;;;;;;;;;;17.40;99.90;;;;;;5049727;28;20458;-66
2022/06/30 03:23:39;;;;;;;;;;;17.40;99.90;;;;;;5049611;28;20401;-66
2022/06/30 03:26:06;;;;;;;;;;;17.30;99.90;;;;;;5049912;28;19978;-66
2022/06/30 03:28:33;;;;;;;;;;;17.20;99.90;;;;;;5049878;28;19928;-66
2022/06/30 03:31:00;;;;;;;;;;;17.10;99.90;;;;;;5049571;28;19928;-66
2022/06/30 03:33:27;;;;;;;;;;;17.00;99.90;;;;;;5049788;28;20339;-65
2022/06/30 03:35:54;;;;;;;;;;;17.00;99.90;;;;;;5049701;28;19997;-67
2022/06/30 03:38:21;;;;;;;;;;;16.90;99.90;;;;;;5049845;28;20343;-65
2022/06/30 03:40:49;;;;;;;;;;;17.00;99.90;;;;;;5049423;28;19925;-66
2022/06/30 03:43:16;;;;;;;;;;;16.90;99.90;;;;;;5050113;28;20347;-65
2022/06/30 03:45:43;;;;;;;;;;;16.90;99.90;;;;;;5049642;28;20020;-66
2022/06/30 03:48:10;;;;;;;;;;;16.90;99.90;;;;;;5049425;28;19948;-66
2022/06/30 03:50:37;;;;;;;;;;;16.90;99.90;;;;;;5048995;28;20350;-66
2022/06/30 03:53:04;;;;;;;;;;;16.90;99.90;;;;;;5049686;28;19929;-66
2022/06/30 03:55:33;;;;;;;;;;;16.90;99.90;;;;;;5050087;28;19929;-66
2022/06/30 03:58:01;;;;;;;;;;;16.90;99.90;;;;;;5053802;28;20392;-66
2022/06/30 04:00:28;;;;;;;;;;;16.90;99.90;;;;;;5053420;28;19986;-66
2022/06/30 04:02:55;;;;;;;;;;;17.00;99.90;;;;;;5053658;28;19929;-66
2022/06/30 04:05:22;;;;;;;;;;;17.00;99.90;;;;;;5053168;28;20350;-66
2022/06/30 04:07:48;;;;;;;;;;;17.00;99.90;;;;;;5052749;28;19975;-66
2022/06/30 04:10:16;;;;;;;;;;;17.00;99.90;;;;;;5052959;28;19978;-66
2022/06/30 04:12:43;;;;;;;;;;;16.90;99.90;;;;;;5053260;28;19924;-72
2022/06/30 04:15:11;;;;;;;;;;;16.90;99.90;;;;;;5053457;28;19929;-69
2022/06/30 04:17:38;;;;;;;;;;;16.80;99.90;;;;;;5053206;28;19983;-68
2022/06/30 04:20:15;;;;;;;;;;;16.80;99.90;;;;;;5053051;28;19974;-68
2022/06/30 04:22:42;;;;;;;;;;;16.90;99.90;;;;;;5052960;28;20396;-67
2022/06/30 04:25:09;;;;;;;;;;;16.90;99.90;;;;;;5052896;28;19960;-68
2022/06/30 04:27:36;;;;;;;;;;;16.90;99.90;;;;;;5053162;28;19971;-67
2022/06/30 04:30:03;;;;;;;;;;;17.00;99.90;;;;;;5052795;28;19933;-67
2022/06/30 04:32:39;;;;;;;;;;;17.10;99.90;;;;;;5052833;28;20384;-67
2022/06/30 04:35:07;;;;;;;;;;;17.20;99.90;;;;;;5052627;28;19924;-67
2022/06/30 04:37:34;;;;;;;;;;;17.30;99.90;;;;;;5052900;28;20354;-67
2022/06/30 04:42:45;;;;;;;;;;;17.50;99.90;;;;;;5052877;28;20384;-67
2022/06/30 04:45:11;;;;;;;;;;;17.60;99.90;;;;;;5052313;28;19924;-66
2022/06/30 04:47:40;;;;;;;;;;;17.70;99.90;;;;;;5052680;28;19925;-68
2022/06/30 04:50:07;;;;;;;;;;;17.70;99.90;;;;;;5052607;28;20020;-67
2022/06/30 04:52:34;;;;;;;;;;;17.60;99.90;;;;;;5074058;23;19925;-65
2022/06/30 04:55:01;;;;;;;;;;;17.70;99.90;;;;;;5049018;28;20024;-65
2022/06/30 04:57:27;;;;;;;;;;;17.80;99.90;;;;;;5054089;28;20011;-68
2022/06/30 04:59:54;;;;;;;;;;;17.90;99.90;;;;;;5052114;28;19929;-66
2022/06/30 05:02:20;;;;;;;;;;;18.20;99.90;;;;;;5039213;28;20019;-66
2022/06/30 05:04:49;;;;;;;;;;;18.30;99.90;;;;;;5024579;28;19971;-69
2022/06/30 05:07:16;;;;;;;;;;;18.30;99.90;;;;;;5022414;28;20016;-67
2022/06/30 05:09:43;;;;;;;;;;;18.30;99.90;;;;;;5023060;28;19961;-66
2022/06/30 05:12:10;;;;;;;;;;;18.50;99.90;;;;;;5023910;28;19929;-66
2022/06/30 05:14:37;;;;;;;;;;;18.50;99.90;;;;;;5032537;28;19932;-66
2022/06/30 05:17:04;;;;;;;;;;;18.80;99.90;;;;;;5028252;28;19975;-66
2022/06/30 05:19:30;;;;;;;;;;;18.90;99.90;;;;;;5031590;28;19936;-67
2022/06/30 05:21:59;;;;;;;;;;;19.00;99.90;;;;;;5024986;28;20020;-66
2022/06/30 05:27:09;;;;;;;;;;;19.20;99.90;;;;;;5035405;28;19925;-67
2022/06/30 05:29:36;;;;;;;;;;;19.20;99.90;;;;;;5030374;28;19933;-65
2022/06/30 05:32:03;;;;;;;;;;;19.40;99.90;;;;;;5036355;28;20020;-67
2022/06/30 05:34:30;;;;;;;;;;;19.50;99.90;;;;;;5026582;28;19925;-66
2022/06/30 05:36:56;;;;;;;;;;;19.60;99.90;;;;;;5027194;28;20016;-66
2022/06/30 05:39:24;;;;;;;;;;;19.70;99.90;;;;;;5031255;28;19968;-66
2022/06/30 05:41:51;;;;;;;;;;;19.70;99.90;;;;;;5031448;28;19929;-66
2022/06/30 05:44:17;;;;;;;;;;;19.80;99.90;;;;;;5030036;28;19956;-67
2022/06/30 05:46:44;;;;;;;;;;;19.90;99.90;;;;;;5031362;28;19925;-66
2022/06/30 05:49:11;;;;;;;;;;;20.10;99.90;;;;;;5030762;28;19925;-67
2022/06/30 05:51:38;;;;;;;;;;;20.10;99.90;;;;;;5030457;28;19933;-67
2022/06/30 05:54:05;;;;;;;;;;;20.20;99.90;;;;;;5032081;28;20412;-68
2022/06/30 05:56:33;;;;;;;;;;;20.20;99.90;;;;;;5028616;28;19968;-66
2022/06/30 05:59:00;;;;;;;;;;;20.30;99.90;;;;;;5029771;28;19925;-66
2022/06/30 06:01:26;;;;;;;;;;;20.40;99.90;;;;;;5029699;28;19932;-68
2022/06/30 06:03:53;;;;;;;;;;;20.40;99.90;;;;;;5037850;28;19932;-66
2022/06/30 06:06:20;;;;;;;;;;;20.50;99.90;;;;;;5036914;28;19970;-67
2022/06/30 06:08:47;;;;;;;;;;;20.80;99.90;;;;;;5027226;28;19932;-66
2022/06/30 06:11:14;;;;;;;;;;;20.90;99.90;;;;;;5024812;28;19965;-66
2022/06/30 06:13:42;;;;;;;;;;;21.10;99.90;;;;;;5032289;28;20027;-65
2022/06/30 06:16:08;;;;;;;;;;;21.10;99.90;;;;;;5032542;28;20406;-66
2022/06/30 06:18:35;;;;;;;;;;;21.20;99.90;;;;;;5028215;28;20012;-65
2022/06/30 06:21:01;;;;;;;;;;;21.20;99.90;;;;;;5028631;28;19932;-66
2022/06/30 06:23:28;;;;;;;;;;;21.20;99.90;;;;;;5025848;28;19987;-67
2022/06/30 06:25:55;;;;;;;;;;;21.20;99.90;;;;;;5027673;28;19969;-65
2022/06/30 06:31:08;;;;;;;;;;;21.30;99.90;;;;;;5029504;28;20456;-66
2022/06/30 06:33:35;;;;;;;;;;;21.30;99.90;;;;;;5030733;28;19925;-66
2022/06/30 06:36:02;;;;;;;;;;;21.40;99.90;;;;;;5049227;28;19947;-66
2022/06/30 06:38:29;;;;;;;;;;;21.40;99.90;;;;;;5038321;28;19925;-67
2022/06/30 06:40:55;;;;;;;;;;;21.50;99.90;;;;;;5029529;28;19924;-66
2022/06/30 06:43:22;;;;;;;;;;;21.50;99.90;;;;;;5029727;28;19979;-67
2022/06/30 06:45:48;;;;;;;;;;;21.60;99.90;;;;;;5030781;28;20016;-66
2022/06/30 06:48:16;;;;;;;;;;;21.70;99.90;;;;;;5030403;28;19926;-67
2022/06/30 06:50:43;;;;;;;;;;;21.80;99.90;;;;;;5029296;28;20412;-67
2022/06/30 06:53:10;;;;;;;;;;;21.80;99.90;;;;;;4970428;28;1706180;-66
2022/06/30 06:55:36;;;;;;;;;;;21.90;99.90;;;;;;5030428;28;19925;-67
2022/06/30 06:58:05;;;;;;;;;;;21.90;99.90;;;;;;5030049;28;20027;-67
2022/06/30 07:00:31;;;;;;;;;;;22.00;99.90;;;;;;5030165;28;19925;-67
2022/06/30 07:02:58;;;;;;;;;;;22.00;99.90;;;;;;5029844;28;19925;-67
2022/06/30 07:05:26;;;;;;;;;;;21.90;99.90;;;;;;5031331;28;19965;-66
2022/06/30 07:07:56;;;;;;;;;;;22.00;99.90;;;;;;5030235;28;19932;-66
2022/06/30 07:10:23;;;;;;;;;;;22.10;99.90;;;;;;5029915;28;20024;-67
2022/06/30 07:12:50;;;;;;;;;;;22.10;99.90;;;;;;5030072;28;20337;-67
2022/06/30 07:15:17;;;;;;;;;;;22.10;99.90;;;;;;5029790;28;19955;-67
2022/06/30 07:17:43;;;;;;;;;;;22.10;99.90;;;;;;5030535;28;19925;-67
2022/06/30 07:20:11;;;;;;;;;;;22.20;99.90;;;;;;5030159;28;19925;-66
2022/06/30 07:22:39;;;;;;;;;;;22.40;99.90;;;;;;5030122;28;19932;-67
2022/06/30 07:25:06;;;;;;;;;;;22.50;99.90;;;;;;5030026;28;19925;-67
2022/06/30 07:27:33;;;;;;;;;;;22.50;99.90;;;;;;5030267;28;20020;-66
2022/06/30 07:29:59;;;;;;;;;;;22.50;99.90;;;;;;5028928;28;20408;-68
2022/06/30 07:32:26;;;;;;;;;;;22.60;99.90;;;;;;5030449;28;19926;-67
2022/06/30 07:34:53;;;;;;;;;;;22.70;99.90;;;;;;5030294;28;19925;-66
2022/06/30 07:37:20;;;;;;;;;;;22.70;99.90;;;;;;5030262;28;19929;-68
2022/06/30 07:39:48;;;;;;;;;;;22.70;99.90;;;;;;5029923;28;19925;-67
2022/06/30 07:42:15;;;;;;;;;;;22.80;99.90;;;;;;5030122;28;19925;-67
2022/06/30 07:44:43;;;;;;;;;;;22.80;99.90;;;;;;5026926;28;19925;-66
2022/06/30 07:47:10;;;;;;;;;;;22.80;99.90;;;;;;5010715;28;19972;-66
2022/06/30 07:49:38;;;;;;;;;;;23.00;99.90;;;;;;5010204;28;20352;-67
2022/06/30 07:52:05;;;;;;;;;;;23.10;99.90;;;;;;5009974;28;20393;-67
2022/06/30 07:54:32;;;;;;;;;;;23.20;99.90;;;;;;5009857;28;19930;-66
2022/06/30 07:57:00;;;;;;;;;;;23.10;99.90;;;;;;5009576;28;20020;-65
2022/06/30 07:59:27;;;;;;;;;;;23.30;99.90;;;;;;5009891;28;19980;-67
2022/06/30 08:01:53;;;;;;;;;;;23.40;99.90;;;;;;5009928;28;20344;-67
2022/06/30 08:04:20;;;;;;;;;;;23.40;99.90;;;;;;5009873;28;19926;-67
2022/06/30 08:06:47;;;;;;;;;;;23.30;99.90;;;;;;5010264;28;19926;-68
2022/06/30 08:09:14;;;;;;;;;;;23.40;99.90;;;;;;5009482;28;19929;-67
2022/06/30 08:11:41;;;;;;;;;;;23.30;99.90;;;;;;5022322;28;19948;-66
2022/06/30 08:14:09;;;;;;;;;;;23.20;99.90;;;;;;5029377;28;19925;-66
2022/06/30 08:16:35;;;;;;;;;;;23.30;99.90;;;;;;5029628;28;19925;-66
2022/06/30 08:19:03;;;;;;;;;;;23.40;99.90;;;;;;5029227;28;19983;-66
2022/06/30 08:21:30;;;;;;;;;;;23.30;99.90;;;;;;5029447;28;19925;-66
2022/06/30 08:23:57;;;;;;;;;;;23.20;99.90;;;;;;5029376;28;19925;-67
2022/06/30 08:26:23;;;;;;;;;;;23.30;99.90;;;;;;5029575;28;19932;-66
2022/06/30 08:28:50;;;;;;;;;;;23.20;99.90;;;;;;5029209;28;19959;-66
2022/06/30 08:31:18;;;;;;;;;;;23.30;99.90;;;;;;5029683;28;19975;-65
2022/06/30 08:33:47;;;;;;;;;;;23.40;99.90;;;;;;5029178;28;19959;-66
2022/06/30 08:36:14;;;;;;;;;;;23.40;99.90;;;;;;5029482;28;20328;-65
2022/06/30 08:38:41;;;;;;;;;;;23.30;99.90;;;;;;5029520;28;19929;-67
2022/06/30 08:43:51;;;;;;;;;;;23.10;99.90;;;;;;5032992;28;19932;-66
2022/06/30 08:46:21;;;;;;;;;;;23.10;99.90;;;;;;5032752;28;19975;-66
2022/06/30 08:48:47;;;;;;;;;;;23.10;99.90;;;;;;5032382;28;20557;-66
2022/06/30 08:51:16;;;;;;;;;;;23.20;99.90;;;;;;5032610;28;19929;-67
2022/06/30 08:53:46;;;;;;;;;;;23.10;99.90;;;;;;5032294;28;19929;-65
2022/06/30 08:56:13;;;;;;;;;;;23.00;99.90;;;;;;5032209;28;19933;-66
2022/06/30 08:58:40;;;;;;;;;;;23.10;99.90;;;;;;5031722;28;19925;-66
2022/06/30 09:01:07;;;;;;;;;;;23.00;99.90;;;;;;5032482;28;19925;-66
2022/06/30 09:03:36;;;;;;;;;;;22.90;99.90;;;;;;5032865;28;19925;-66
2022/06/30 09:06:04;;;;;;;;;;;23.00;99.90;;;;;;5032663;28;20281;-67
2022/06/30 09:08:30;;;;;;;;;;;23.10;99.90;;;;;;5032126;28;19972;-67
2022/06/30 09:10:57;;;;;;;;;;;23.20;99.90;;;;;;5040191;28;20388;-67
2022/06/30 09:13:24;;;;;;;;;;;23.30;99.90;;;;;;5031966;28;19925;-67
2022/06/30 09:15:51;;;;;;;;;;;23.40;99.90;;;;;;5032323;28;19929;-67
2022/06/30 09:18:21;;;;;;;;;;;23.40;99.90;;;;;;5032183;28;19979;-67
2022/06/30 09:20:50;;;;;;;;;;;23.60;99.90;;;;;;5032019;28;19972;-67
2022/06/30 09:23:21;;;;;;;;;;;23.90;99.90;;;;;;5032282;28;19954;-67
2022/06/30 09:25:49;;;;;;;;;;;23.90;99.90;;;;;;5031870;28;19929;-67
2022/06/30 09:28:16;;;;;;;;;;;23.90;99.90;;;;;;5031951;28;19948;-66
2022/06/30 09:30:43;;;;;;;;;;;23.80;99.90;;;;;;5027330;28;19929;-67
2022/06/30 09:33:10;;;;;;;;;;;23.90;99.90;;;;;;5024863;28;19971;-66
2022/06/30 09:35:38;;;;;;;;;;;24.00;99.90;;;;;;5027477;28;19925;-66
2022/06/30 09:38:07;;;;;;;;;;;24.00;99.90;;;;;;5030219;28;20336;-65
2022/06/30 09:40:35;;;;;;;;;;;23.80;99.90;;;;;;5024266;28;19925;-67
2022/06/30 09:43:02;;;;;;;;;;;23.80;99.90;;;;;;5028555;28;20000;-66
2022/06/30 09:45:40;;;;;;;;;;;24.00;99.90;;;;;;5029548;28;19968;-67
2022/06/30 09:48:07;;;;;;;;;;;24.10;99.90;;;;;;5026273;28;19925;-66
2022/06/30 09:50:34;;;;;;;;;;;24.00;99.90;;;;;;5030919;28;20293;-66
2022/06/30 09:53:05;;;;;;;;;;;24.00;99.90;;;;;;5022708;28;20360;-66
2022/06/30 09:55:38;;;;;;;;;;;24.10;99.90;;;;;;5029201;28;19932;-67
2022/06/30 09:58:06;;;;;;;;;;;24.40;99.90;;;;;;5027307;28;20352;-66
2022/06/30 10:00:42;;;;;;;;;;;24.50;99.90;;;;;;5030991;28;19983;-68
2022/06/30 10:03:09;;;;;;;;;;;24.40;99.90;;;;;;5029228;28;20363;-66
2022/06/30 10:05:36;;;;;;;;;;;24.60;99.90;;;;;;5027096;28;19929;-66
2022/06/30 10:08:02;;;;;;;;;;;24.80;99.90;;;;;;5030026;28;20352;-67
2022/06/30 10:10:29;;;;;;;;;;;24.90;99.90;;;;;;5030606;28;19926;-67
2022/06/30 10:12:58;;;;;;;;;;;25.10;99.90;;;;;;5026911;28;19925;-66
2022/06/30 10:15:25;;;;;;;;;;;25.20;99.90;;;;;;5030061;28;19933;-66
2022/06/30 10:17:52;;;;;;;;;;;25.50;99.90;;;;;;5030684;28;19929;-67
2022/06/30 10:20:19;;;;;;;;;;;25.70;99.90;;;;;;5030358;28;19932;-70
2022/06/30 10:22:46;;;;;;;;;;;25.60;99.90;;;;;;5031322;28;19925;-67
2022/06/30 10:25:13;;;;;;;;;;;25.70;99.90;;;;;;5029055;28;20359;-68
2022/06/30 10:27:40;;;;;;;;;;;26.00;99.90;;;;;;5025561;28;20401;-68
2022/06/30 10:30:11;;;;;;;;;;;26.10;99.90;;;;;;5029833;28;19925;-67
2022/06/30 10:32:44;;;;;;;;;;;26.20;99.90;;;;;;5040429;28;19987;-67
2022/06/30 10:35:16;;;;;;;;;;;26.50;99.90;;;;;;5030159;28;19979;-68
2022/06/30 10:37:46;;;;;;;;;;;26.60;99.90;;;;;;5026085;28;20285;-67
2022/06/30 10:40:20;;;;;;;;;;;26.70;99.90;;;;;;5028622;28;20371;-72
2022/06/30 10:42:47;;;;;;;;;;;27.10;99.90;;;;;;5027048;28;19975;-73
2022/06/30 10:45:33;;;;;;;;;;;27.00;99.90;;;;;;5029722;28;20425;-67
2022/06/30 10:48:02;;;;;;;;;;;26.80;99.90;;;;;;5037353;28;20404;-68
2022/06/30 10:50:32;;;;;;;;;;;27.00;99.90;;;;;;5030625;28;19925;-69
2022/06/30 10:52:59;;;;;;;;;;;27.20;99.90;;;;;;5036261;28;19987;-69
2022/06/30 10:55:26;;;;;;;;;;;27.20;99.90;;;;;;5029361;28;20484;-68
2022/06/30 10:57:59;;;;;;;;;;;27.30;99.90;;;;;;5030500;28;19929;-74
2022/06/30 11:00:40;;;;;;;;;;;27.60;99.90;;;;;;5036255;28;19929;-68
2022/06/30 11:03:09;;;;;;;;;;;27.60;99.90;;;;;;5026935;28;19929;-69
2022/06/30 11:05:49;;;;;;;;;;;27.10;99.90;;;;;;5024487;28;19948;-67
2022/06/30 11:08:47;;;;;;;;;;;27.20;99.90;;;;;;5028522;28;19929;-68
2022/06/30 11:11:34;;;;;;;;;;;26.90;99.90;;;;;;4983787;28;19925;-67
2022/06/30 11:14:17;;;;;;;;;;;26.80;99.90;;;;;;5022139;28;19926;-72
2022/06/30 11:16:44;;;;;;;;;;;26.60;99.90;;;;;;5025457;28;19932;-68
2022/06/30 11:19:16;;;;;;;;;;;26.50;99.90;;;;;;5024226;28;19968;-69
2022/06/30 11:21:43;;;;;;;;;;;26.90;99.90;;;;;;5024816;28;19925;-68
2022/06/30 11:24:10;;;;;;;;;;;27.10;99.90;;;;;;5029505;28;19964;-68
2022/06/30 11:29:23;;;;;;;;;;;27.70;99.90;;;;;;5029150;28;20393;-68
2022/06/30 11:31:50;;;;;;;;;;;27.80;99.90;;;;;;5029493;28;19925;-68
2022/06/30 11:34:20;;;;;;;;;;;28.10;99.90;;;;;;5028959;28;19967;-69
2022/06/30 11:36:47;;;;;;;;;;;28.60;99.90;;;;;;5023772;28;19932;-67
2022/06/30 11:39:15;;;;;;;;;;;28.60;99.90;;;;;;5024955;28;19925;-69
2022/06/30 11:41:59;;;;;;;;;;;29.10;99.90;;;;;;5035932;28;19931;-69
2022/06/30 11:44:26;;;;;;;;;;;29.70;99.90;;;;;;5024004;28;19936;-68
2022/06/30 11:46:55;;;;;;;;;;;30.70;99.90;;;;;;5026301;28;19933;-67
2022/06/30 11:49:24;;;;;;;;;;;31.50;99.90;;;;;;5022923;28;19932;-68
2022/06/30 11:51:51;;;;;;;;;;;31.60;99.90;;;;;;5029526;28;19925;-68
2022/06/30 11:54:18;;;;;;;;;;;31.70;99.90;;;;;;5027638;28;20515;-69
2022/06/30 11:56:46;;;;;;;;;;;32.10;99.90;;;;;;5022123;28;20455;-67
2022/06/30 11:59:12;;;;;;;;;;;32.70;99.90;;;;;;5025683;28;20444;-67
2022/06/30 12:01:40;;;;;;;;;;;32.80;99.90;;;;;;5029028;28;19932;-68
2022/06/30 12:04:14;;;;;;;;;;;34.00;99.90;;;;;;5028756;28;19935;-68
2022/06/30 12:06:42;;;;;;;;;;;34.20;99.90;;;;;;5032230;28;19975;-68
2022/06/30 12:09:09;;;;;;;;;;;33.30;99.90;;;;;;5021020;28;19925;-68
2022/06/30 12:11:36;;;;;;;;;;;32.80;99.90;;;;;;5028683;28;19928;-68
2022/06/30 12:14:03;;;;;;;;;;;32.80;99.90;;;;;;5022778;28;19925;-67
2022/06/30 12:16:30;;;;;;;;;;;33.50;99.90;;;;;;5027618;28;19925;-68
2022/06/30 12:18:57;;;;;;;;;;;34.40;99.90;;;;;;5030890;28;19925;-67
2022/06/30 12:21:23;;;;;;;;;;;35.20;99.90;;;;;;5032513;28;19933;-68
2022/06/30 12:23:52;;;;;;;;;;;35.50;99.90;;;;;;5032672;28;20393;-68
2022/06/30 12:26:19;;;;;;;;;;;35.90;99.90;;;;;;5028295;28;19925;-68
2022/06/30 12:28:47;;;;;;;;;;;35.60;99.90;;;;;;5029745;28;19949;-69
2022/06/30 12:31:22;;;;;;;;;;;35.70;99.90;;;;;;5026555;28;19929;-69
2022/06/30 12:33:49;;;;;;;;;;;35.80;99.90;;;;;;5027294;28;20032;-71
2022/06/30 12:36:16;;;;;;;;;;;36.10;99.90;;;;;;5029435;28;20361;-71
2022/06/30 12:38:43;;;;;;;;;;;36.90;99.90;;;;;;5039657;28;19929;-70
2022/06/30 12:41:11;;;;;;;;;;;37.10;99.90;;;;;;5027981;28;19925;-68
2022/06/30 12:43:45;;;;;;;;;;;37.00;99.90;;;;;;5032188;28;19991;-68
2022/06/30 12:46:12;;;;;;;;;;;37.40;99.90;;;;;;5032658;28;19925;-67
2022/06/30 12:48:40;;;;;;;;;;;36.50;99.90;;;;;;5031749;28;19925;-68
2022/06/30 12:51:08;;;;;;;;;;;35.80;99.90;;;;;;5031780;28;19925;-69
2022/06/30 12:53:35;;;;;;;;;;;36.50;99.90;;;;;;5032088;28;19932;-66
2022/06/30 12:56:07;;;;;;;;;;;37.10;99.90;;;;;;5023919;28;19925;-68
2022/06/30 12:58:52;;;;;;;;;;;36.90;99.90;;;;;;5030669;28;19929;-69
2022/06/30 13:01:21;;;;;;;;;;;37.20;99.90;;;;;;5030342;28;19925;-68
2022/06/30 13:03:56;;;;;;;;;;;37.80;99.90;;;;;;5031894;28;20292;-68
2022/06/30 13:06:23;;;;;;;;;;;37.70;99.90;;;;;;5030484;28;20040;-68
2022/06/30 13:08:50;;;;;;;;;;;38.00;99.90;;;;;;5040080;28;19925;-69
2022/06/30 13:11:18;;;;;;;;;;;38.20;99.90;;;;;;5032922;28;20462;-68
2022/06/30 13:13:45;;;;;;;;;;;38.50;99.90;;;;;;5032079;28;19929;-67
2022/06/30 13:16:12;;;;;;;;;;;38.50;99.90;;;;;;5032235;28;20348;-68
2022/06/30 13:18:41;;;;;;;;;;;38.90;99.90;;;;;;5032082;28;19933;-68
2022/06/30 13:21:07;;;;;;;;;;;38.70;99.90;;;;;;5036181;28;19929;-68
2022/06/30 13:23:34;;;;;;;;;;;38.00;99.90;;;;;;5048814;28;20465;-68
2022/06/30 13:26:01;;;;;;;;;;;37.40;99.90;;;;;;5052184;28;19925;-68
2022/06/30 13:28:28;;;;;;;;;;;37.80;99.90;;;;;;5051909;28;19958;-68
2022/06/30 13:30:55;;;;;;;;;;;37.90;99.90;;;;;;5051658;28;19925;-68
2022/06/30 13:33:22;;;;;;;;;;;37.60;99.90;;;;;;5045662;28;19924;-68
2022/06/30 13:35:50;;;;;;;;;;;37.80;99.90;;;;;;5031673;28;19925;-67
2022/06/30 13:38:17;;;;;;;;;;;38.60;99.90;;;;;;5031813;28;20401;-67
2022/06/30 13:40:43;;;;;;;;;;;38.50;99.90;;;;;;5039247;28;19925;-68
2022/06/30 13:43:10;;;;;;;;;;;38.10;99.90;;;;;;5040363;28;19978;-67
2022/06/30 13:45:37;;;;;;;;;;;38.10;99.90;;;;;;5051281;28;19928;-68
2022/06/30 13:48:04;;;;;;;;;;;38.80;99.90;;;;;;5051172;28;20384;-67
2022/06/30 13:50:30;;;;;;;;;;;39.40;99.90;;;;;;5051770;28;19928;-65
2022/06/30 13:52:58;;;;;;;;;;;39.30;99.90;;;;;;5051454;28;19980;-66
2022/06/30 13:55:25;;;;;;;;;;;39.10;99.90;;;;;;5052541;28;19971;-66
2022/06/30 13:57:51;;;;;;;;;;;39.70;99.90;;;;;;5051341;28;20022;-66
2022/06/30 14:00:18;;;;;;;;;;;40.40;99.90;;;;;;5052728;28;20367;-65
2022/06/30 14:02:45;;;;;;;;;;;40.20;99.90;;;;;;5052264;28;19925;-65
2022/06/30 14:05:12;;;;;;;;;;;40.40;99.90;;;;;;5050633;28;20011;-66
2022/06/30 14:07:39;;;;;;;;;;;39.60;99.90;;;;;;5051282;28;19924;-66
2022/06/30 14:10:08;;;;;;;;;;;39.10;99.90;;;;;;5050696;28;19951;-66
2022/06/30 14:12:35;;;;;;;;;;;38.10;99.90;;;;;;5050937;28;19929;-66
2022/06/30 14:15:02;;;;;;;;;;;37.20;99.90;;;;;;5050531;28;19950;-67
2022/06/30 14:17:28;;;;;;;;;;;35.70;99.90;;;;;;5050954;28;20400;-67
2022/06/30 14:19:55;;;;;;;;;;;34.70;99.90;;;;;;5036969;28;20322;-68
2022/06/30 14:22:22;;;;;;;;;;;33.40;99.90;;;;;;5031257;28;19925;-67
2022/06/30 14:24:48;;;;;;;;;;;33.20;99.90;;;;;;5035725;28;20363;-67
2022/06/30 14:27:17;;;;;;;;;;;33.50;99.90;;;;;;5038493;28;19925;-68
2022/06/30 14:29:43;;;;;;;;;;;33.80;99.90;;;;;;5030654;28;19925;-67
2022/06/30 14:32:10;;;;;;;;;;;33.40;99.90;;;;;;5030798;28;19925;-67
2022/06/30 14:34:37;;;;;;;;;;;33.10;99.90;;;;;;5030064;28;19929;-67
2022/06/30 14:37:04;;;;;;;;;;;32.60;99.90;;;;;;5030923;28;20019;-67
2022/06/30 14:39:31;;;;;;;;;;;32.60;99.90;;;;;;5029996;28;19948;-67